createdAt,value
2019-02-06T00:00:52.517Z,99.90
2019-02-06T00:03:22.756Z,99.90
2019-02-06T00:05:52.620Z,99.90
2019-02-06T00:08:22.273Z,99.90
2019-02-06T00:10:51.876Z,99.90
2019-02-06T00:13:21.531Z,99.90
2019-02-06T00:15:51.645Z,99.90
2019-02-06T00:18:21.352Z,99.90
2019-02-06T00:20:50.758Z,99.90
2019-02-06T00:23:20.099Z,99.90
2019-02-06T00:25:49.792Z,99.90
2019-02-06T00:28:19.538Z,99.90
2019-02-06T00:30:49.194Z,99.90
2019-02-06T00:33:18.886Z,99.90
2019-02-06T00:35:48.167Z,99.90
2019-02-06T00:38:18.232Z,99.90
2019-02-06T00:40:47.587Z,99.90
2019-02-06T00:43:17.617Z,99.90
2019-02-06T00:45:47.461Z,99.90
2019-02-06T00:48:17.555Z,99.90
2019-02-06T00:50:46.944Z,99.90
2019-02-06T00:53:16.951Z,99.90
2019-02-06T00:55:46.886Z,99.90
2019-02-06T00:58:16.113Z,99.90
2019-02-06T01:00:45.776Z,99.90
2019-02-06T01:03:15.753Z,99.90
2019-02-06T01:05:45.239Z,99.90
2019-02-06T01:08:14.970Z,99.90
2019-02-06T01:10:44.917Z,99.90
2019-02-06T01:13:14.505Z,99.90
2019-02-06T01:15:43.821Z,99.90
2019-02-06T01:18:13.478Z,99.90
2019-02-06T01:20:42.721Z,99.90
2019-02-06T01:23:15.882Z,99.90
2019-02-06T01:25:43.951Z,99.90
2019-02-06T01:28:14.027Z,99.90
2019-02-06T01:30:56.808Z,99.90
2019-02-06T01:33:26.142Z,99.90
2019-02-06T01:35:56.216Z,99.90
2019-02-06T01:38:25.474Z,99.90
2019-02-06T01:40:54.760Z,99.90
2019-02-06T01:43:24.698Z,99.90
2019-02-06T01:45:54.680Z,99.90
2019-02-06T01:48:23.873Z,99.90
2019-02-06T01:50:53.214Z,99.90
2019-02-06T01:53:22.489Z,99.90
2019-02-06T01:55:52.902Z,99.90
2019-02-06T01:58:22.332Z,99.90
2019-02-06T02:00:51.589Z,99.90
2019-02-06T02:03:22.094Z,99.90
2019-02-06T02:06:01.827Z,99.90
2019-02-06T02:08:24.083Z,99.90
2019-02-06T02:10:53.707Z,99.90
2019-02-06T02:13:23.541Z,99.90
2019-02-06T02:15:52.827Z,99.90
2019-02-06T02:18:22.480Z,99.90
2019-02-06T02:20:51.689Z,99.90
2019-02-06T02:23:21.772Z,99.90
2019-02-06T02:25:51.971Z,99.90
2019-02-06T02:28:27.698Z,99.90
2019-02-06T02:30:57.465Z,99.90
2019-02-06T02:33:26.740Z,99.90
2019-02-06T02:36:16.577Z,99.90
2019-02-06T02:38:46.796Z,99.90
2019-02-06T02:41:16.463Z,99.90
2019-02-06T02:43:46.394Z,99.90
2019-02-06T02:46:16.418Z,99.90
2019-02-06T02:48:46.477Z,99.90
2019-02-06T02:51:16.711Z,99.90
2019-02-06T02:53:46.614Z,99.90
2019-02-06T02:56:16.163Z,99.90
2019-02-06T02:58:45.580Z,99.90
2019-02-06T03:01:33.570Z,99.90
2019-02-06T03:04:07.857Z,99.90
2019-02-06T03:06:56.494Z,99.90
2019-02-06T03:09:26.292Z,99.90
2019-02-06T03:11:56.112Z,99.90
2019-02-06T03:14:25.554Z,99.90
2019-02-06T03:16:54.898Z,99.90
2019-02-06T03:19:24.155Z,99.90
2019-02-06T03:21:53.386Z,99.90
2019-02-06T03:24:23.054Z,99.90
2019-02-06T03:26:53.007Z,99.90
2019-02-06T03:29:22.261Z,99.90
2019-02-06T03:31:51.508Z,99.90
2019-02-06T03:34:21.439Z,99.90
2019-02-06T03:36:50.751Z,99.90
2019-02-06T03:39:19.994Z,99.90
2019-02-06T03:41:49.695Z,99.90
2019-02-06T03:44:18.926Z,99.90
2019-02-06T03:46:48.522Z,99.90
2019-02-06T03:49:17.756Z,99.90
2019-02-06T03:51:47.375Z,99.90
2019-02-06T03:54:17.322Z,99.90
2019-02-06T03:56:47.330Z,99.90
2019-02-06T03:59:17.006Z,99.90
2019-02-06T04:01:46.345Z,99.90
2019-02-06T04:04:15.876Z,99.90
2019-02-06T04:06:53.629Z,99.90
2019-02-06T04:09:16.444Z,99.90
2019-02-06T04:11:46.232Z,99.90
2019-02-06T04:14:16.128Z,99.90
2019-02-06T04:16:45.719Z,99.90
2019-02-06T04:19:15.294Z,99.90
2019-02-06T04:21:44.592Z,99.90
2019-02-06T04:24:13.951Z,99.90
2019-02-06T04:26:43.539Z,99.90
2019-02-06T04:29:12.805Z,99.90
2019-02-06T04:31:42.050Z,99.90
2019-02-06T04:34:11.671Z,99.90
2019-02-06T04:36:41.725Z,99.90
2019-02-06T04:39:10.974Z,99.90
2019-02-06T04:41:40.566Z,99.90
2019-02-06T04:44:29.127Z,99.90
2019-02-06T04:46:58.353Z,99.90
2019-02-06T04:49:27.802Z,99.90
2019-02-06T04:51:57.018Z,99.90
2019-02-06T04:54:27.150Z,99.90
2019-02-06T04:56:57.035Z,99.90
2019-02-06T04:59:26.616Z,99.90
2019-02-06T05:01:56.584Z,99.90
2019-02-06T05:04:26.198Z,99.90
2019-02-06T05:06:55.423Z,99.90
2019-02-06T05:09:24.917Z,99.90
2019-02-06T05:11:54.508Z,99.90
2019-02-06T05:14:23.913Z,99.90
2019-02-06T05:16:53.441Z,99.90
2019-02-06T05:19:22.675Z,99.90
2019-02-06T05:21:52.607Z,99.90
2019-02-06T05:24:22.046Z,99.90
2019-02-06T05:26:51.440Z,99.90
2019-02-06T05:29:21.017Z,99.90
2019-02-06T05:31:50.337Z,99.90
2019-02-06T05:34:19.983Z,99.90
2019-02-06T05:36:50.998Z,99.90
2019-02-06T05:39:20.496Z,99.90
2019-02-06T05:41:50.114Z,99.90
2019-02-06T05:44:20.295Z,99.90
2019-02-06T05:46:49.660Z,99.90
2019-02-06T05:49:38.458Z,99.90
2019-02-06T05:52:07.864Z,99.90
2019-02-06T05:54:37.480Z,99.90
2019-02-06T05:57:06.886Z,99.90
2019-02-06T05:59:36.678Z,99.90
2019-02-06T06:02:06.359Z,99.90
2019-02-06T06:04:35.958Z,99.90
2019-02-06T06:07:05.791Z,99.90
2019-02-06T06:09:35.461Z,99.90
2019-02-06T06:12:04.745Z,99.90
2019-02-06T06:14:34.859Z,99.90
2019-02-06T06:17:04.451Z,99.90
2019-02-06T06:19:33.691Z,99.90
2019-02-06T06:22:03.072Z,99.90
2019-02-06T06:24:32.325Z,99.90
2019-02-06T06:27:02.366Z,99.90
2019-02-06T06:29:50.740Z,99.90
2019-02-06T06:32:20.653Z,99.90
2019-02-06T06:34:50.111Z,99.90
2019-02-06T06:37:19.398Z,99.90
2019-02-06T06:39:48.708Z,99.90
2019-02-06T06:42:18.325Z,99.90
2019-02-06T06:44:47.923Z,99.90
2019-02-06T06:47:17.204Z,99.90
2019-02-06T06:49:46.870Z,99.90
2019-02-06T06:52:16.136Z,99.90
2019-02-06T06:54:45.793Z,99.90
2019-02-06T06:57:15.332Z,99.90
2019-02-06T06:59:44.682Z,99.90
2019-02-06T07:02:14.373Z,99.90
2019-02-06T07:04:44.033Z,99.90
2019-02-06T07:07:13.737Z,99.90
2019-02-06T07:09:43.350Z,99.90
2019-02-06T07:12:13.397Z,99.90
2019-02-06T07:14:42.995Z,99.90
2019-02-06T07:17:12.327Z,99.90
2019-02-06T07:19:42.093Z,99.90
2019-02-06T07:22:11.329Z,99.90
2019-02-06T07:24:40.941Z,99.90
2019-02-06T07:27:10.359Z,99.90
2019-02-06T07:29:39.639Z,99.90
2019-02-06T07:32:09.243Z,99.90
2019-02-06T07:34:39.301Z,99.90
2019-02-06T07:37:08.907Z,99.90
2019-02-06T07:39:38.547Z,99.90
2019-02-06T07:42:07.885Z,99.90
2019-02-06T07:44:37.279Z,99.90
2019-02-06T07:47:07.071Z,99.90
2019-02-06T07:49:36.650Z,99.90
2019-02-06T07:52:06.068Z,99.90
2019-02-06T07:54:35.643Z,99.90
2019-02-06T07:57:04.910Z,99.90
2019-02-06T07:59:34.781Z,99.90
2019-02-06T08:02:04.074Z,99.90
2019-02-06T08:04:33.774Z,99.90
2019-02-06T08:07:03.113Z,99.90
2019-02-06T08:09:32.426Z,99.90
2019-02-06T08:12:02.005Z,99.90
2019-02-06T08:14:31.360Z,99.90
2019-02-06T08:17:01.119Z,99.90
2019-02-06T08:19:31.056Z,99.90
2019-02-06T08:22:00.656Z,99.90
2019-02-06T08:24:30.085Z,99.90
2019-02-06T08:26:59.318Z,99.90
2019-02-06T08:29:28.581Z,99.90
2019-02-06T08:31:58.174Z,99.90
2019-02-06T08:34:28.391Z,99.90
2019-02-06T08:36:57.984Z,99.90
2019-02-06T08:39:28.344Z,99.90
2019-02-06T08:41:57.563Z,99.90
2019-02-06T08:44:27.186Z,99.90
2019-02-06T08:46:57.202Z,99.90
2019-02-06T08:49:26.934Z,99.90
2019-02-06T08:51:56.434Z,99.90
2019-02-06T08:54:26.410Z,99.90
2019-02-06T08:56:55.782Z,99.90
2019-02-06T08:59:25.027Z,99.90
2019-02-06T09:01:54.629Z,99.90
2019-02-06T09:04:24.357Z,99.90
2019-02-06T09:06:53.722Z,99.90
2019-02-06T09:09:23.295Z,99.90
2019-02-06T09:11:52.548Z,99.90
2019-02-06T09:14:22.482Z,99.90
2019-02-06T09:16:51.860Z,99.90
2019-02-06T09:19:21.439Z,99.90
2019-02-06T09:21:50.699Z,99.90
2019-02-06T09:24:20.715Z,99.90
2019-02-06T09:26:50.755Z,99.90
2019-02-06T09:29:20.395Z,99.90
2019-02-06T09:31:49.594Z,99.90
2019-02-06T09:34:19.220Z,99.90
2019-02-06T09:36:48.598Z,99.90
2019-02-06T09:39:17.863Z,99.90
2019-02-06T09:41:47.947Z,99.90
2019-02-06T09:44:17.586Z,99.90
2019-02-06T09:46:47.914Z,99.90
2019-02-06T09:49:17.526Z,99.90
2019-02-06T09:51:46.922Z,99.90
2019-02-06T09:54:16.114Z,99.90
2019-02-06T09:56:45.387Z,99.90
2019-02-06T09:59:14.606Z,99.90
2019-02-06T10:01:43.984Z,99.90
2019-02-06T10:04:13.633Z,99.90
2019-02-06T10:06:43.677Z,99.90
2019-02-06T10:09:22.558Z,99.90
2019-02-06T10:11:44.575Z,99.90
2019-02-06T10:14:14.137Z,99.90
2019-02-06T10:16:43.682Z,99.90
2019-02-06T10:19:13.727Z,99.90
2019-02-06T10:21:43.348Z,99.90
2019-02-06T10:24:13.058Z,99.90
2019-02-06T10:26:42.688Z,99.90
2019-02-06T10:29:31.162Z,99.90
2019-02-06T10:32:00.760Z,99.90
2019-02-06T10:34:30.345Z,99.30
2019-02-06T10:36:59.688Z,99.60
2019-02-06T10:39:34.612Z,97.60
2019-02-06T10:42:00.732Z,97.10
2019-02-06T10:44:30.441Z,96.10
2019-02-06T10:46:59.772Z,96.80
2019-02-06T10:49:29.577Z,96.30
2019-02-06T10:51:59.211Z,97.30
2019-02-06T10:54:28.573Z,94.80
2019-02-06T10:56:58.123Z,94.80
2019-02-06T10:59:28.188Z,95.30
2019-02-06T11:01:57.703Z,94.00
2019-02-06T11:04:27.472Z,93.90
2019-02-06T11:06:56.761Z,93.60
2019-02-06T11:09:26.379Z,93.80
2019-02-06T11:11:56.482Z,94.20
2019-02-06T11:14:26.732Z,95.00
2019-02-06T11:16:56.347Z,94.70
2019-02-06T11:19:25.729Z,94.10
2019-02-06T11:21:55.098Z,95.10
2019-02-06T11:24:26.738Z,95.50
2019-02-06T11:26:56.665Z,95.40
2019-02-06T11:29:26.558Z,96.20
2019-02-06T11:31:56.091Z,95.50
2019-02-06T11:34:25.368Z,96.30
2019-02-06T11:36:55.359Z,96.20
2019-02-06T11:39:24.704Z,96.80
2019-02-06T11:41:54.323Z,97.30
2019-02-06T11:44:23.934Z,96.90
2019-02-06T11:46:53.191Z,97.30
2019-02-06T11:49:28.217Z,97.80
2019-02-06T11:51:57.584Z,97.90
2019-02-06T11:54:27.185Z,99.70
2019-02-06T11:56:56.799Z,99.90
2019-02-06T11:59:26.450Z,99.90
2019-02-06T12:01:56.767Z,99.90
2019-02-06T12:04:26.160Z,99.90
2019-02-06T12:06:55.551Z,99.90
2019-02-06T12:09:24.786Z,99.90
2019-02-06T12:11:54.476Z,99.90
2019-02-06T12:14:23.994Z,99.90
2019-02-06T12:16:53.598Z,99.90
2019-02-06T12:19:23.121Z,99.90
2019-02-06T12:21:52.741Z,99.90
2019-02-06T12:24:22.488Z,99.90
2019-02-06T12:26:52.153Z,99.90
2019-02-06T12:29:21.576Z,99.90
2019-02-06T12:31:51.382Z,99.90
2019-02-06T12:34:20.832Z,99.90
2019-02-06T12:36:50.138Z,99.90
2019-02-06T12:39:22.615Z,99.90
2019-02-06T12:41:50.565Z,99.90
2019-02-06T12:44:20.390Z,99.90
2019-02-06T12:46:49.801Z,99.90
2019-02-06T12:49:19.033Z,99.90
2019-02-06T12:51:48.646Z,99.90
2019-02-06T12:54:17.873Z,99.90
2019-02-06T12:56:47.246Z,99.90
2019-02-06T12:59:16.622Z,99.90
2019-02-06T13:01:46.517Z,99.90
2019-02-06T13:04:16.551Z,99.90
2019-02-06T13:06:45.824Z,99.90
2019-02-06T13:09:15.437Z,99.90
2019-02-06T13:11:44.731Z,99.90
2019-02-06T13:14:14.250Z,99.90
2019-02-06T13:16:43.785Z,99.90
2019-02-06T13:19:13.699Z,99.90
2019-02-06T13:21:43.347Z,99.90
2019-02-06T13:24:12.627Z,99.90
2019-02-06T13:26:44.221Z,99.90
2019-02-06T13:29:13.277Z,99.90
2019-02-06T13:31:43.403Z,99.90
2019-02-06T13:34:13.090Z,99.90
2019-02-06T13:36:42.358Z,99.90
2019-02-06T13:39:12.009Z,99.90
2019-02-06T13:41:41.336Z,99.90
2019-02-06T13:44:11.595Z,99.90
2019-02-06T13:46:52.768Z,99.90
2019-02-06T13:49:12.392Z,99.90
2019-02-06T13:51:42.044Z,99.90
2019-02-06T13:54:11.366Z,99.90
2019-02-06T13:56:41.013Z,99.90
2019-02-06T13:59:11.058Z,99.90
2019-02-06T14:01:40.622Z,99.90
2019-02-06T14:04:09.916Z,99.90
2019-02-06T14:06:39.704Z,99.90
2019-02-06T14:09:22.198Z,99.90
2019-02-06T14:12:04.270Z,99.90
2019-02-06T14:14:33.539Z,99.90
2019-02-06T14:17:02.785Z,99.90
2019-02-06T14:19:32.026Z,99.90
2019-02-06T14:22:01.280Z,99.90
2019-02-06T14:25:06.982Z,99.90
2019-02-06T14:28:26.782Z,99.90
2019-02-06T14:31:39.214Z,99.90
2019-02-06T14:34:48.618Z,99.90
2019-02-06T14:38:20.425Z,99.90
2019-02-06T14:41:26.946Z,99.90
2019-02-06T14:44:16.517Z,99.90
2019-02-06T14:47:20.081Z,99.90
2019-02-06T14:50:09.441Z,99.90
2019-02-06T14:52:48.494Z,99.90
2019-02-06T14:55:56.360Z,99.90
2019-02-06T14:59:18.926Z,99.90
2019-02-06T15:02:41.757Z,99.90
2019-02-06T15:05:42.406Z,99.90
2019-02-06T15:08:37.760Z,99.90
2019-02-06T15:11:21.744Z,99.90
2019-02-06T15:14:45.908Z,99.90
2019-02-06T15:18:04.919Z,99.90
2019-02-06T15:20:56.956Z,99.90
2019-02-06T15:24:10.593Z,99.90
2019-02-06T15:27:08.531Z,99.90
2019-02-06T15:30:22.451Z,99.90
2019-02-06T15:33:13.426Z,99.90
2019-02-06T15:36:20.486Z,99.90
2019-02-06T15:39:26.906Z,99.90
2019-02-06T15:42:06.961Z,99.90
2019-02-06T15:44:47.051Z,99.90
2019-02-06T15:47:51.153Z,99.90
2019-02-06T15:50:57.926Z,99.90
2019-02-06T15:54:13.473Z,99.90
2019-02-06T15:57:11.323Z,99.90
2019-02-06T16:00:24.432Z,99.90
2019-02-06T16:03:56.900Z,99.90
2019-02-06T16:06:55.586Z,99.90
2019-02-06T16:10:14.338Z,99.90
2019-02-06T16:13:09.598Z,99.90
2019-02-06T16:16:06.636Z,99.90
2019-02-06T16:19:22.414Z,99.90
2019-02-06T16:22:24.558Z,99.90
2019-02-06T16:25:07.616Z,99.90
2019-02-06T16:28:15.664Z,99.90
2019-02-06T16:31:36.080Z,99.90
2019-02-06T16:35:11.075Z,99.90
2019-02-06T16:38:23.472Z,99.90
2019-02-06T16:41:12.225Z,99.90
2019-02-06T16:44:35.218Z,99.90
2019-02-06T16:47:47.914Z,99.90
2019-02-06T16:50:42.871Z,99.90
2019-02-06T16:54:08.491Z,99.90
2019-02-06T16:57:14.139Z,99.90
2019-02-06T17:00:30.060Z,99.90
2019-02-06T17:03:37.324Z,99.90
2019-02-06T17:06:38.118Z,99.90
2019-02-06T17:09:54.182Z,99.90
2019-02-06T17:12:42.298Z,99.90
2019-02-06T17:15:49.066Z,99.90
2019-02-06T17:18:49.236Z,99.90
2019-02-06T17:22:00.438Z,99.90
2019-02-06T17:25:02.608Z,99.90
2019-02-06T17:28:07.450Z,99.90
2019-02-06T17:31:16.755Z,99.90
2019-02-06T17:34:21.076Z,99.90
2019-02-06T17:37:22.278Z,99.90
2019-02-06T17:40:09.661Z,99.90
2019-02-06T17:43:15.916Z,99.90
2019-02-06T17:46:08.218Z,99.90
2019-02-06T17:49:04.466Z,99.90
2019-02-06T17:52:20.183Z,99.90
2019-02-06T17:55:22.213Z,99.90
2019-02-06T17:57:56.300Z,99.90
2019-02-06T18:00:32.601Z,99.90
2019-02-06T18:03:04.006Z,99.90
2019-02-06T18:05:33.751Z,99.90
2019-02-06T18:08:04.120Z,99.90
2019-02-06T18:10:34.190Z,99.90
2019-02-06T18:13:03.487Z,99.90
2019-02-06T18:15:32.700Z,99.90
2019-02-06T18:18:03.239Z,99.90
2019-02-06T18:20:32.831Z,99.90
2019-02-06T18:23:02.791Z,99.90
2019-02-06T18:25:32.514Z,99.90
2019-02-06T18:28:02.587Z,99.90
2019-02-06T18:30:32.436Z,99.90
2019-02-06T18:33:01.785Z,99.90
2019-02-06T18:35:31.189Z,99.90
2019-02-06T18:38:01.265Z,99.90
2019-02-06T18:40:31.105Z,99.90
2019-02-06T18:43:01.002Z,99.90
2019-02-06T18:45:31.168Z,99.90
2019-02-06T18:48:01.902Z,99.90
2019-02-06T18:50:31.654Z,99.90
2019-02-06T18:53:01.430Z,99.90
2019-02-06T18:55:30.655Z,99.90
2019-02-06T18:58:00.689Z,99.90
2019-02-06T19:00:32.484Z,99.90
2019-02-06T19:03:02.847Z,99.90
2019-02-06T19:05:34.685Z,99.90
2019-02-06T19:08:04.628Z,99.90
2019-02-06T19:10:34.408Z,99.90
2019-02-06T19:13:03.987Z,99.90
2019-02-06T19:15:34.263Z,99.90
2019-02-06T19:18:03.978Z,99.90
2019-02-06T19:20:35.696Z,99.90
2019-02-06T19:23:04.808Z,99.90
2019-02-06T19:25:35.148Z,99.90
2019-02-06T19:28:04.918Z,99.90
2019-02-06T19:30:36.626Z,99.90
2019-02-06T19:34:01.057Z,99.90
2019-02-06T19:36:30.768Z,99.90
2019-02-06T19:39:00.016Z,99.90
2019-02-06T19:41:29.567Z,99.90
2019-02-06T19:43:59.317Z,99.90
2019-02-06T19:46:28.589Z,99.90
2019-02-06T19:48:58.260Z,99.90
2019-02-06T19:51:27.927Z,99.90
2019-02-06T19:53:57.169Z,99.90
2019-02-06T19:56:26.444Z,99.90
2019-02-06T19:58:56.179Z,99.90
2019-02-06T20:01:25.824Z,99.90
2019-02-06T20:03:55.433Z,99.90
2019-02-06T20:06:32.267Z,99.90
2019-02-06T20:09:11.759Z,99.90
2019-02-06T20:11:41.570Z,99.90
2019-02-06T20:14:11.867Z,99.90
2019-02-06T20:16:41.219Z,99.90
2019-02-06T20:19:10.884Z,99.90
2019-02-06T20:21:40.911Z,99.90
2019-02-06T20:24:10.655Z,99.90
2019-02-06T20:26:40.076Z,99.90
2019-02-06T20:29:09.673Z,99.90
2019-02-06T20:31:39.879Z,99.90
2019-02-06T20:34:09.411Z,99.90
2019-02-06T20:36:38.981Z,99.90
2019-02-06T20:39:09.993Z,99.90
2019-02-06T20:41:39.680Z,99.90
2019-02-06T20:44:09.330Z,99.90
2019-02-06T20:46:39.026Z,99.90
2019-02-06T20:49:08.326Z,99.90
2019-02-06T20:51:37.862Z,99.90
2019-02-06T20:54:08.448Z,99.90
2019-02-06T20:56:37.706Z,99.90
2019-02-06T20:59:07.433Z,99.90
2019-02-06T21:01:37.063Z,99.90
2019-02-06T21:04:06.660Z,99.90
2019-02-06T21:06:36.282Z,99.90
2019-02-06T21:09:11.008Z,99.90
2019-02-06T21:11:40.693Z,99.90
2019-02-06T21:14:09.924Z,99.90
2019-02-06T21:16:39.563Z,99.90
2019-02-06T21:19:08.847Z,99.90
2019-02-06T21:21:38.219Z,99.90
2019-02-06T21:24:08.271Z,99.90
2019-02-06T21:26:37.910Z,99.90
2019-02-06T21:29:07.443Z,99.90
2019-02-06T21:31:36.659Z,99.90
2019-02-06T21:34:06.714Z,99.90
2019-02-06T21:36:36.282Z,99.90
2019-02-06T21:39:09.490Z,99.90
2019-02-06T21:41:39.659Z,99.90
2019-02-06T21:44:08.934Z,99.90
2019-02-06T21:46:38.487Z,99.90
2019-02-06T21:49:08.088Z,99.90
2019-02-06T21:51:37.485Z,99.90
2019-02-06T21:54:07.130Z,99.90
2019-02-06T21:56:36.488Z,99.90
2019-02-06T21:59:05.708Z,99.90
2019-02-06T22:01:35.107Z,99.90
2019-02-06T22:04:05.182Z,99.90
2019-02-06T22:06:34.544Z,99.90
2019-02-06T22:09:04.918Z,99.90
2019-02-06T22:11:34.597Z,99.90
2019-02-06T22:14:03.939Z,99.90
2019-02-06T22:16:33.842Z,99.90
2019-02-06T22:19:03.068Z,99.90
2019-02-06T22:21:32.678Z,99.90
2019-02-06T22:24:03.371Z,99.90
2019-02-06T22:26:33.015Z,99.90
2019-02-06T22:29:03.270Z,99.90
2019-02-06T22:31:32.878Z,99.90
2019-02-06T22:34:02.309Z,99.90
2019-02-06T22:36:31.926Z,99.90
2019-02-06T22:39:01.695Z,99.90
2019-02-06T22:41:31.074Z,99.90
2019-02-06T22:44:06.598Z,99.90
2019-02-06T22:46:32.431Z,99.90
2019-02-06T22:49:02.337Z,99.90
2019-02-06T22:51:32.127Z,99.90
2019-02-06T22:54:01.741Z,99.90
2019-02-06T22:56:31.136Z,99.90
2019-02-06T22:59:01.177Z,99.90
2019-02-06T23:01:45.603Z,99.90
2019-02-06T23:04:14.957Z,99.90
2019-02-06T23:06:44.590Z,99.90
2019-02-06T23:09:13.982Z,99.90
2019-02-06T23:11:43.429Z,99.90
2019-02-06T23:14:17.740Z,99.90
2019-02-06T23:16:44.664Z,99.90
2019-02-06T23:19:14.380Z,99.90
2019-02-06T23:21:44.010Z,99.90
2019-02-06T23:24:13.362Z,99.90
2019-02-06T23:26:42.731Z,99.90
2019-02-06T23:29:12.098Z,99.90
2019-02-06T23:31:41.441Z,99.90
2019-02-06T23:34:11.145Z,99.90
2019-02-06T23:36:41.056Z,99.90
2019-02-06T23:39:18.368Z,99.90
2019-02-06T23:41:48.024Z,99.90
2019-02-06T23:44:28.343Z,99.90
2019-02-06T23:46:48.841Z,99.90
2019-02-06T23:49:18.463Z,99.90
2019-02-06T23:52:07.550Z,99.90
2019-02-06T23:54:37.373Z,99.90
2019-02-06T23:57:07.338Z,99.90
2019-02-06T23:59:36.729Z,99.90
